createdAt,value
2023-02-02T00:01:00.012Z,79.82
2023-02-02T00:04:05.716Z,79.24
2023-02-02T00:07:12.453Z,79.72
2023-02-02T00:10:21.125Z,80.26
2023-02-02T00:13:27.423Z,80.22
2023-02-02T00:16:43.851Z,80.12
2023-02-02T00:19:50.037Z,80.94
2023-02-02T00:22:55.500Z,80.04
2023-02-02T00:26:04.497Z,79.72
2023-02-02T00:29:16.267Z,79.79
2023-02-02T00:32:23.488Z,80.23
2023-02-02T00:35:28.971Z,79.37
2023-02-02T00:38:37.970Z,79.64
2023-02-02T00:41:46.212Z,80.18
2023-02-02T00:45:08.095Z,80.07
2023-02-02T00:48:13.888Z,79.02
2023-02-02T00:51:20.345Z,79.37
2023-02-02T00:54:26.744Z,79.38
2023-02-02T00:57:35.841Z,79.65
2023-02-02T01:00:41.376Z,79.87
2023-02-02T01:03:48.335Z,79.56
2023-02-02T01:06:54.447Z,78.90
2023-02-02T01:10:01.012Z,79.12
2023-02-02T01:13:10.059Z,79.03
2023-02-02T01:16:16.674Z,79.11
2023-02-02T01:19:22.029Z,79.61
2023-02-02T01:22:29.178Z,79.48
2023-02-02T01:25:38.640Z,79.09
2023-02-02T01:28:48.437Z,78.71
2023-02-02T01:31:54.208Z,79.30
2023-02-02T01:35:00.461Z,78.63
2023-02-02T01:38:05.828Z,78.88
2023-02-02T01:41:17.495Z,79.31
2023-02-02T01:45:27.071Z,79.21
2023-02-02T01:48:38.730Z,78.49
2023-02-02T01:51:51.299Z,78.46
2023-02-02T01:55:08.608Z,78.19
2023-02-02T01:58:21.136Z,78.82
2023-02-02T02:01:31.563Z,78.71
2023-02-02T02:04:37.205Z,78.06
2023-02-02T02:07:50.053Z,77.63
2023-02-02T02:10:56.009Z,78.47
2023-02-02T02:14:23.661Z,78.35
2023-02-02T02:17:53.439Z,78.11
2023-02-02T02:21:51.384Z,78.01
2023-02-02T02:25:52.220Z,77.92
2023-02-02T02:29:36.052Z,77.94
2023-02-02T02:32:55.504Z,77.22
2023-02-02T02:36:18.635Z,77.71
2023-02-02T02:39:38.941Z,77.84
2023-02-02T02:42:55.317Z,76.97
2023-02-02T02:46:02.099Z,77.78
2023-02-02T02:49:15.588Z,77.29
2023-02-02T02:52:21.014Z,77.31
2023-02-02T02:55:36.527Z,77.84
2023-02-02T02:58:54.480Z,77.57
2023-02-02T03:02:29.132Z,77.33
2023-02-02T03:05:55.308Z,76.99
2023-02-02T03:09:10.554Z,77.14
2023-02-02T03:12:19.391Z,77.07
2023-02-02T03:15:25.949Z,77.46
2023-02-02T03:18:35.711Z,77.35
2023-02-02T03:21:44.684Z,77.41
2023-02-02T03:24:50.011Z,76.88
2023-02-02T03:27:56.987Z,77.20
2023-02-02T03:31:05.517Z,76.74
2023-02-02T03:34:10.939Z,76.53
2023-02-02T03:37:19.931Z,76.59
2023-02-02T03:40:25.429Z,76.34
2023-02-02T03:43:31.871Z,76.60
2023-02-02T03:46:37.305Z,76.38
2023-02-02T03:49:43.695Z,76.34
2023-02-02T03:52:51.836Z,76.19
2023-02-02T03:55:58.058Z,75.84
2023-02-02T03:59:03.436Z,75.88
2023-02-02T04:02:09.677Z,76.14
2023-02-02T04:05:15.291Z,75.95
2023-02-02T04:08:24.450Z,76.38
2023-02-02T04:11:30.587Z,75.55
2023-02-02T04:14:36.967Z,75.74
2023-02-02T04:17:42.602Z,75.71
2023-02-02T04:20:49.398Z,75.83
2023-02-02T04:23:57.762Z,75.33
2023-02-02T04:27:03.939Z,75.62
2023-02-02T04:30:10.820Z,75.35
2023-02-02T04:33:17.020Z,75.24
2023-02-02T04:36:22.350Z,74.99
2023-02-02T04:39:31.403Z,74.57
2023-02-02T04:42:36.791Z,74.66
2023-02-02T04:45:43.234Z,74.31
2023-02-02T04:48:52.318Z,73.99
2023-02-02T04:51:58.511Z,73.93
2023-02-02T04:55:06.768Z,74.01
2023-02-02T04:58:13.086Z,73.09
2023-02-02T05:01:22.976Z,72.78
2023-02-02T05:04:29.715Z,72.78
2023-02-02T05:07:35.160Z,72.81
2023-02-02T05:10:46.060Z,72.47
2023-02-02T05:13:53.856Z,72.15
2023-02-02T05:17:00.125Z,71.96
2023-02-02T05:20:05.567Z,71.49
2023-02-02T05:23:12.049Z,71.02
2023-02-02T05:26:25.789Z,71.00
2023-02-02T05:29:33.691Z,70.50
2023-02-02T05:32:39.056Z,70.33
2023-02-02T05:35:47.777Z,70.66
2023-02-02T05:38:53.203Z,69.90
2023-02-02T05:42:02.420Z,69.49
2023-02-02T05:45:09.574Z,69.97
2023-02-02T05:48:17.071Z,69.02
2023-02-02T05:51:28.647Z,68.82
2023-02-02T05:54:34.905Z,68.70
2023-02-02T05:57:43.457Z,68.65
2023-02-02T06:00:49.709Z,68.19
2023-02-02T06:03:55.096Z,68.13
2023-02-02T06:07:01.374Z,68.55
2023-02-02T06:10:08.171Z,67.58
2023-02-02T06:13:17.217Z,67.92
2023-02-02T06:16:22.984Z,67.43
2023-02-02T06:19:29.240Z,67.58
2023-02-02T06:22:36.043Z,68.16
2023-02-02T06:25:42.329Z,67.82
2023-02-02T06:28:54.360Z,67.56
2023-02-02T06:32:00.690Z,68.03
2023-02-02T06:35:06.142Z,68.10
2023-02-02T06:38:12.631Z,67.65
2023-02-02T06:41:18.046Z,68.50
2023-02-02T06:44:27.775Z,69.18
2023-02-02T06:47:35.123Z,70.21
2023-02-02T06:50:41.587Z,70.22
2023-02-02T06:53:46.940Z,70.88
2023-02-02T06:56:53.194Z,71.47
2023-02-02T07:00:01.330Z,72.11
2023-02-02T07:03:08.070Z,72.50
2023-02-02T07:06:20.777Z,72.37
2023-02-02T07:09:26.995Z,72.09
2023-02-02T07:12:33.499Z,72.06
2023-02-02T07:15:44.218Z,71.74
2023-02-02T07:18:50.608Z,72.11
2023-02-02T07:21:56.844Z,72.02
2023-02-02T07:25:02.210Z,71.23
2023-02-02T07:28:08.825Z,71.77
2023-02-02T07:31:23.988Z,71.92
2023-02-02T07:34:30.224Z,72.30
2023-02-02T07:37:35.822Z,71.25
2023-02-02T07:40:42.076Z,72.03
2023-02-02T07:43:50.954Z,71.74
2023-02-02T07:47:00.025Z,71.26
2023-02-02T07:50:05.487Z,71.80
2023-02-02T07:53:11.986Z,72.01
2023-02-02T07:56:20.710Z,72.93
2023-02-02T07:59:27.115Z,73.23
2023-02-02T08:02:35.688Z,73.29
2023-02-02T08:05:41.990Z,73.97
2023-02-02T08:08:48.276Z,73.93
2023-02-02T08:11:54.532Z,73.94
2023-02-02T08:14:59.885Z,73.89
2023-02-02T08:18:09.093Z,74.05
2023-02-02T08:21:15.347Z,74.28
2023-02-02T08:24:21.540Z,74.32
2023-02-02T08:27:26.928Z,74.39
2023-02-02T08:30:34.610Z,74.93
2023-02-02T08:33:44.058Z,74.80
2023-02-02T08:36:50.279Z,75.29
2023-02-02T08:39:56.013Z,75.65
2023-02-02T08:43:03.815Z,75.63
2023-02-02T08:46:12.415Z,75.84
2023-02-02T08:49:21.577Z,76.17
2023-02-02T08:52:28.051Z,76.38
2023-02-02T08:55:34.240Z,76.96
2023-02-02T08:58:43.272Z,77.21
2023-02-02T09:01:49.792Z,77.79
2023-02-02T09:04:57.938Z,77.97
2023-02-02T09:08:04.150Z,78.10
2023-02-02T09:11:12.201Z,78.00
2023-02-02T09:14:18.563Z,78.09
2023-02-02T09:17:24.358Z,78.41
2023-02-02T09:20:33.506Z,78.60
2023-02-02T09:23:42.382Z,78.25
2023-02-02T09:26:49.008Z,78.40
2023-02-02T09:29:54.460Z,78.19
2023-02-02T09:33:00.756Z,79.40
2023-02-02T09:36:16.395Z,78.74
2023-02-02T09:39:22.771Z,79.50
2023-02-02T09:42:57.905Z,79.61
2023-02-02T09:46:21.477Z,78.88
2023-02-02T09:49:40.505Z,79.39
2023-02-02T09:52:59.388Z,80.31
2023-02-02T09:56:14.485Z,80.98
2023-02-02T09:59:27.495Z,80.53
2023-02-02T10:02:46.233Z,80.10
2023-02-02T10:06:05.304Z,80.43
2023-02-02T10:09:34.433Z,79.85
2023-02-02T10:12:50.856Z,80.06
2023-02-02T10:16:08.942Z,80.14
2023-02-02T10:19:18.406Z,80.03
2023-02-02T10:22:32.764Z,79.29
2023-02-02T10:25:58.713Z,78.76
2023-02-02T10:29:19.278Z,78.43
2023-02-02T10:32:31.186Z,78.04
2023-02-02T10:35:48.479Z,77.35
2023-02-02T10:39:12.193Z,75.90
2023-02-02T10:42:41.964Z,74.54
2023-02-02T10:45:54.895Z,74.25
2023-02-02T10:49:21.244Z,74.18
2023-02-02T10:52:37.213Z,73.43
2023-02-02T10:55:56.721Z,73.83
2023-02-02T10:59:14.636Z,73.82
2023-02-02T11:02:21.390Z,73.95
2023-02-02T11:05:48.244Z,74.81
2023-02-02T11:08:57.208Z,75.38
2023-02-02T11:12:16.787Z,74.66
2023-02-02T11:15:34.269Z,74.61
2023-02-02T11:18:41.896Z,74.32
2023-02-02T11:21:53.242Z,73.76
2023-02-02T11:25:05.504Z,73.64
2023-02-02T11:28:22.167Z,73.72
2023-02-02T11:31:40.329Z,72.80
2023-02-02T11:34:45.830Z,72.74
2023-02-02T11:38:01.330Z,71.63
2023-02-02T11:41:13.967Z,70.74
2023-02-02T11:44:30.130Z,70.51
2023-02-02T11:47:38.626Z,69.80
2023-02-02T11:50:53.874Z,69.06
2023-02-02T11:54:09.264Z,69.34
2023-02-02T11:57:23.518Z,69.71
2023-02-02T12:00:30.847Z,69.45
2023-02-02T12:03:42.359Z,67.72
2023-02-02T12:06:48.034Z,68.33
2023-02-02T12:09:55.413Z,68.36
2023-02-02T12:13:12.830Z,67.87
2023-02-02T12:16:53.920Z,67.68
2023-02-02T12:20:24.797Z,68.52
2023-02-02T12:23:54.749Z,67.77
2023-02-02T12:27:23.267Z,68.14
2023-02-02T12:30:48.304Z,67.57
2023-02-02T12:34:11.919Z,67.69
2023-02-02T12:37:45.510Z,67.13
2023-02-02T12:41:30.234Z,66.34
2023-02-02T12:45:00.379Z,65.69
2023-02-02T12:48:29.794Z,65.21
2023-02-02T12:52:00.699Z,64.59
2023-02-02T12:55:32.135Z,64.48
2023-02-02T12:58:56.355Z,65.36
2023-02-02T13:02:15.265Z,65.75
2023-02-02T13:05:58.122Z,65.46
2023-02-02T13:09:15.165Z,65.07
2023-02-02T13:12:28.660Z,64.27
2023-02-02T13:15:41.939Z,63.07
2023-02-02T13:18:58.861Z,63.83
2023-02-02T13:22:09.849Z,63.33
2023-02-02T13:25:28.422Z,63.16
2023-02-02T13:28:50.221Z,61.57
2023-02-02T13:32:07.696Z,62.36
2023-02-02T13:35:24.976Z,61.70
2023-02-02T13:38:34.502Z,61.89
2023-02-02T13:41:41.388Z,60.71
2023-02-02T13:45:01.711Z,61.09
2023-02-02T13:48:32.941Z,61.29
2023-02-02T13:52:00.132Z,61.96
2023-02-02T13:56:06.752Z,59.45
2023-02-02T13:59:43.780Z,59.59
2023-02-02T14:02:56.300Z,58.28
2023-02-02T14:06:14.393Z,58.78
2023-02-02T14:09:22.582Z,58.78
2023-02-02T14:12:36.602Z,58.54
2023-02-02T14:15:47.475Z,59.28
2023-02-02T14:19:04.331Z,58.63
2023-02-02T14:22:48.894Z,59.56
2023-02-02T14:26:11.817Z,57.64
2023-02-02T14:29:40.798Z,57.85
2023-02-02T14:32:47.169Z,57.84
2023-02-02T14:36:17.081Z,57.68
2023-02-02T14:39:31.538Z,57.16
2023-02-02T14:43:23.104Z,57.64
2023-02-02T14:46:48.364Z,57.06
2023-02-02T14:49:58.924Z,57.00
2023-02-02T14:53:27.025Z,57.92
2023-02-02T14:56:50.100Z,56.71
2023-02-02T15:00:01.478Z,57.55
2023-02-02T15:03:38.067Z,57.29
2023-02-02T15:06:46.168Z,57.49
2023-02-02T15:09:56.511Z,58.29
2023-02-02T15:13:16.266Z,57.67
2023-02-02T15:16:32.193Z,57.87
2023-02-02T15:19:48.215Z,56.92
2023-02-02T15:23:03.935Z,56.76
2023-02-02T15:26:25.310Z,56.77
2023-02-02T15:29:44.882Z,58.16
2023-02-02T15:32:54.399Z,57.41
2023-02-02T15:36:07.933Z,57.38
2023-02-02T15:39:29.955Z,58.35
2023-02-02T15:42:58.029Z,57.87
2023-02-02T15:46:09.927Z,57.48
2023-02-02T15:49:34.869Z,57.09
2023-02-02T15:52:52.227Z,54.49
2023-02-02T15:56:00.224Z,55.50
2023-02-02T15:59:24.481Z,54.92
2023-02-02T16:02:42.021Z,55.12
2023-02-02T16:05:54.711Z,54.42
2023-02-02T16:09:00.664Z,54.83
2023-02-02T16:12:10.662Z,55.17
2023-02-02T16:15:27.567Z,55.67
2023-02-02T16:18:34.314Z,54.89
2023-02-02T16:21:51.203Z,55.55
2023-02-02T16:25:04.350Z,55.37
2023-02-02T16:28:10.219Z,55.23
2023-02-02T16:31:19.707Z,55.15
2023-02-02T16:34:49.107Z,55.37
2023-02-02T16:37:55.604Z,56.25
2023-02-02T16:41:11.166Z,55.68
2023-02-02T16:44:43.102Z,55.06
2023-02-02T16:47:51.369Z,55.89
2023-02-02T16:51:27.639Z,55.46
2023-02-02T16:54:33.256Z,55.43
2023-02-02T16:57:40.435Z,55.09
2023-02-02T17:01:14.841Z,55.20
2023-02-02T17:04:31.984Z,55.09
2023-02-02T17:07:42.633Z,53.21
2023-02-02T17:10:48.928Z,53.53
2023-02-02T17:13:55.829Z,51.92
2023-02-02T17:17:05.076Z,53.76
2023-02-02T17:20:15.791Z,53.27
2023-02-02T17:23:22.252Z,53.35
2023-02-02T17:26:27.953Z,53.48
2023-02-02T17:29:35.464Z,53.05
2023-02-02T17:32:40.947Z,52.88
2023-02-02T17:35:55.647Z,52.72
2023-02-02T17:39:01.726Z,52.77
2023-02-02T17:42:09.078Z,53.24
2023-02-02T17:45:21.593Z,53.14
2023-02-02T17:48:28.098Z,53.55
2023-02-02T17:51:41.332Z,54.59
2023-02-02T17:54:47.658Z,53.97
2023-02-02T17:57:55.839Z,53.63
2023-02-02T18:01:02.316Z,54.13
2023-02-02T18:04:10.040Z,53.72
2023-02-02T18:07:18.998Z,53.10
2023-02-02T18:10:30.139Z,53.13
2023-02-02T18:13:36.601Z,52.44
2023-02-02T18:16:42.237Z,52.60
2023-02-02T18:19:51.280Z,52.21
2023-02-02T18:22:59.499Z,52.34
2023-02-02T18:26:14.094Z,52.35
2023-02-02T18:29:19.483Z,52.45
2023-02-02T18:32:26.511Z,52.30
2023-02-02T18:35:31.939Z,52.09
2023-02-02T18:38:41.774Z,52.12
2023-02-02T18:41:47.217Z,52.45
2023-02-02T18:44:53.835Z,52.23
2023-02-02T18:47:59.816Z,53.18
2023-02-02T18:51:08.786Z,52.45
2023-02-02T18:54:17.755Z,52.58
2023-02-02T18:57:23.927Z,52.64
2023-02-02T19:00:29.566Z,52.98
2023-02-02T19:03:36.886Z,53.24
2023-02-02T19:06:57.891Z,53.55
2023-02-02T19:10:07.246Z,53.41
2023-02-02T19:13:21.854Z,53.59
2023-02-02T19:16:31.779Z,54.01
2023-02-02T19:19:40.169Z,54.28
2023-02-02T19:22:46.792Z,54.63
2023-02-02T19:25:58.397Z,55.17
2023-02-02T19:29:16.857Z,55.37
2023-02-02T19:32:27.060Z,55.38
2023-02-02T19:35:34.086Z,56.04
2023-02-02T19:38:39.879Z,56.73
2023-02-02T19:41:49.265Z,56.04
2023-02-02T19:44:56.287Z,56.27
2023-02-02T19:48:16.039Z,56.85
2023-02-02T19:51:44.791Z,57.70
2023-02-02T19:54:51.885Z,58.47
2023-02-02T19:58:14.638Z,58.67
2023-02-02T20:01:28.049Z,58.86
2023-02-02T20:04:35.765Z,58.80
2023-02-02T20:07:42.666Z,58.65
2023-02-02T20:10:48.432Z,58.44
2023-02-02T20:13:57.484Z,58.47
2023-02-02T20:17:15.709Z,58.26
2023-02-02T20:20:29.970Z,58.46
2023-02-02T20:23:47.268Z,58.69
2023-02-02T20:26:55.244Z,58.91
2023-02-02T20:30:24.388Z,58.92
2023-02-02T20:33:31.418Z,59.25
2023-02-02T20:36:42.819Z,59.24
2023-02-02T20:39:54.084Z,60.58
2023-02-02T20:43:00.055Z,61.05
2023-02-02T20:46:09.176Z,61.18
2023-02-02T20:49:14.717Z,61.43
2023-02-02T20:52:25.461Z,61.61
2023-02-02T20:55:31.776Z,61.57
2023-02-02T20:58:38.037Z,61.85
2023-02-02T21:01:46.748Z,61.44
2023-02-02T21:04:55.094Z,61.04
2023-02-02T21:08:00.541Z,60.73
2023-02-02T21:11:08.188Z,60.59
2023-02-02T21:14:13.953Z,60.61
2023-02-02T21:17:23.405Z,60.70
2023-02-02T21:20:29.048Z,60.57
2023-02-02T21:23:35.490Z,60.53
2023-02-02T21:26:41.141Z,60.40
2023-02-02T21:29:47.903Z,60.50
2023-02-02T21:32:56.024Z,60.45
2023-02-02T21:36:19.479Z,60.40
2023-02-02T21:39:30.518Z,60.11
2023-02-02T21:42:37.592Z,60.64
2023-02-02T21:45:48.586Z,60.68
2023-02-02T21:48:58.397Z,60.46
2023-02-02T21:52:17.090Z,60.32
2023-02-02T21:55:38.294Z,60.16
2023-02-02T21:58:45.507Z,59.55
2023-02-02T22:01:55.161Z,59.75
2023-02-02T22:05:15.831Z,59.72
2023-02-02T22:08:28.075Z,60.21
2023-02-02T22:11:46.028Z,60.43
2023-02-02T22:14:55.537Z,60.90
2023-02-02T22:18:00.905Z,61.09
2023-02-02T22:21:10.288Z,61.40
2023-02-02T22:24:16.006Z,60.88
2023-02-02T22:27:26.944Z,61.08
2023-02-02T22:30:39.877Z,61.25
2023-02-02T22:33:46.418Z,60.98
2023-02-02T22:36:54.580Z,61.52
2023-02-02T22:40:01.090Z,61.64
2023-02-02T22:43:09.390Z,61.32
2023-02-02T22:46:15.643Z,61.23
2023-02-02T22:49:21.287Z,61.36
2023-02-02T22:52:30.314Z,61.30
2023-02-02T22:55:36.589Z,61.43
2023-02-02T22:58:42.918Z,61.47
2023-02-02T23:01:48.261Z,60.92
2023-02-02T23:04:54.466Z,60.61
2023-02-02T23:08:02.863Z,60.66
2023-02-02T23:11:09.126Z,60.72
2023-02-02T23:14:15.074Z,60.91
2023-02-02T23:17:21.407Z,60.57
2023-02-02T23:20:27.760Z,60.39
2023-02-02T23:23:37.003Z,60.49
2023-02-02T23:26:42.433Z,60.82
2023-02-02T23:29:48.642Z,60.60
2023-02-02T23:32:54.078Z,60.81
2023-02-02T23:36:00.416Z,60.71
2023-02-02T23:39:08.656Z,60.52
2023-02-02T23:42:14.929Z,60.29
2023-02-02T23:45:20.446Z,60.70
2023-02-02T23:48:28.409Z,60.62
2023-02-02T23:51:35.194Z,60.60
2023-02-02T23:54:44.310Z,60.24
2023-02-02T23:57:49.877Z,60.75
